Terminal Aerodrome Forecast
Issued by NWS Wilmington, OH

Current Version | Previous Version | Text Only | Print | Product List | Glossary Off
Versions: 1 2 3 4 5 6 7 8 9 10 11 12 13 14 15 16 17 18 19 20 21 22 23 24 25 26 27 28

467
FTUS41 KILN 222317 AAB
TAFCVG
TAF AMD
KCVG 222317Z 2223/2324 23006KT P6SM VCTS SCT040CB SCT200
      TEMPO 2223/2302 26020G35KT 2SM TSRA BKN020CB
     FM230200 23007KT 5SM -SHRA VCTS BKN050CB OVC100
      TEMPO 2302/2306 2SM TSRA BKN025CB
     FM231100 24007KT P6SM VCSH BKN050
     FM231700 26008KT P6SM BKN025 OVC060=

USA.gov is the U.S. government's official web portal to all federal, state and local government web resources and services.